Time;durP1;ratioP1;P1;durP2;ratioP2;P2;SDS_P1;SDS_P2;PMS_P1;PMS_P2;Temp;Humidity;BMP_temperature;BMP_pressure;BME280_temperature;BME280_humidity;BME280_pressure;Samples;Min_cycle;Max_cycle;Signal;HPM_P1;HPM_P2
2023/09/06 00:00:32;;;;;;;;;14.00;14.00;;;;;14.59;88.10;100322.00;6275393;20;3523283;-64
2023/09/06 00:03:01;;;;;;;;;13.00;12.00;;;;;14.26;88.41;100325.97;6270035;20;3532616;-63
2023/09/06 00:05:29;;;;;;;;;15.00;14.50;;;;;14.72;88.21;100324.75;6300957;20;2487769;-64
2023/09/06 00:07:58;;;;;;;;;14.67;13.00;;;;;14.81;87.56;100328.63;6272029;20;3531518;-64
2023/09/06 00:10:28;;;;;;;;;12.80;10.40;;;;;14.67;88.00;100329.59;6297677;20;2809987;-64
2023/09/06 00:12:56;;;;;;;;;11.00;11.00;;;;;14.71;87.60;100323.84;6267861;20;3506674;-64
2023/09/06 00:15:25;;;;;;;;;14.67;11.00;;;;;14.91;86.91;100321.63;6305246;20;3521253;-64
2023/09/06 00:17:53;;;;;;;;;16.00;15.00;;;;;14.62;86.86;100327.19;6270988;20;2804641;-63
2023/09/06 00:20:24;;;;;;;;;15.00;14.00;;;;;14.48;87.12;100329.91;6275034;20;3539836;-64
2023/09/06 00:23:01;;;;;;;;;12.50;11.00;;;;;14.37;87.22;100329.78;6282299;20;2788833;-59
2023/09/06 00:25:32;;;;;;;;;15.00;14.00;;;;;14.55;86.57;100315.06;6278109;20;2812783;-64
2023/09/06 00:28:03;;;;;;;;;12.00;12.00;;;;;14.21;88.06;100322.69;6277988;20;2801285;-57
2023/09/06 00:30:33;;;;;;;;;14.67;14.67;;;;;14.22;88.68;100313.66;6274174;20;3522128;-58
2023/09/06 00:33:06;;;;;;;;;13.00;11.00;;;;;14.01;88.38;100315.06;6274752;20;2500384;-57
2023/09/06 00:35:36;;;;;;;;;14.33;13.00;;;;;14.52;86.38;100308.97;6272437;20;3536081;-59
2023/09/06 00:38:06;;;;;;;;;15.33;13.67;;;;;14.27;86.85;100311.50;6271494;20;3532785;-58
2023/09/06 00:40:36;;;;;;;;;15.00;14.00;;;;;13.84;87.12;100314.31;6274465;20;2498273;-58
2023/09/06 00:43:08;;;;;;;;;14.00;13.00;;;;;13.75;88.71;100309.53;6273552;20;3526448;-57
2023/09/06 00:45:48;;;;;;;;;14.00;13.00;;;;;13.81;88.54;100309.13;6303898;20;3530582;-58
2023/09/06 00:48:29;;;;;;;;;15.33;13.00;;;;;13.60;89.21;100303.28;6272286;20;3518107;-56
2023/09/06 00:50:58;;;;;;;;;13.67;12.67;;;;;13.57;89.97;100310.72;6298282;20;3524348;-58
2023/09/06 00:53:27;;;;;;;;;12.33;11.33;;;;;13.71;88.38;100307.13;6306247;20;3522256;-58
2023/09/06 00:55:58;;;;;;;;;13.00;13.00;;;;;13.64;89.24;100317.47;6305875;20;3523209;-57
2023/09/06 00:58:27;;;;;;;;;13.67;13.00;;;;;13.63;88.89;100309.44;6302759;20;3548291;-56
2023/09/06 01:00:57;;;;;;;;;12.67;12.67;;;;;13.99;88.49;100307.06;6273007;20;3530643;-55
2023/09/06 01:03:25;;;;;;;;;16.00;16.00;;;;;13.90;87.99;100304.97;6270505;20;2500403;-59
2023/09/06 01:06:21;;;;;;;;;17.00;15.00;;;;;13.94;88.25;100308.34;6269887;20;3548296;-56
2023/09/06 01:08:57;;;;;;;;;13.33;13.00;;;;;13.99;87.91;100306.19;6270892;20;3526405;-57
2023/09/06 01:11:27;;;;;;;;;11.50;11.00;;;;;14.04;87.73;100309.47;6308433;20;2484473;-57
2023/09/06 01:13:59;;;;;;;;;14.33;13.00;;;;;13.79;88.66;100312.88;6275825;20;3513998;-57
2023/09/06 01:16:41;;;;;;;;;12.67;12.67;;;;;13.69;89.35;100309.03;6312822;20;3519168;-56
2023/09/06 01:19:15;;;;;;;;;15.00;13.67;;;;;13.30;90.81;100308.81;6278312;20;3541920;-57
2023/09/06 01:22:09;;;;;;;;;13.50;12.00;;;;;13.45;90.50;100306.09;6283321;20;2802382;-53
2023/09/06 01:24:38;;;;;;;;;14.00;11.50;;;;;13.18;90.72;100304.16;6282556;20;2800424;-57
2023/09/06 01:27:07;;;;;;;;;16.00;13.67;;;;;13.52;90.08;100311.00;6277967;20;3523227;-58
2023/09/06 01:29:36;;;;;;;;;13.00;13.00;;;;;13.67;89.14;100298.38;6306742;20;2492049;-57
2023/09/06 01:32:05;;;;;;;;;15.00;15.00;;;;;13.68;88.76;100302.78;6283492;20;2796117;-56
2023/09/06 01:34:34;;;;;;;;;13.67;13.67;;;;;13.62;88.41;100314.00;6275922;20;3535786;-53
2023/09/06 01:37:02;;;;;;;;;10.00;10.00;;;;;13.95;87.67;100313.63;6286553;20;2795289;-57
2023/09/06 01:39:31;;;;;;;;;16.67;14.00;;;;;13.84;87.68;100310.75;6279329;20;3528526;-57
2023/09/06 01:41:59;;;;;;;;;15.67;14.00;;;;;13.92;87.04;100315.66;6311341;20;3543991;-55
2023/09/06 01:44:28;;;;;;;;;11.67;10.67;;;;;13.74;87.99;100313.19;6274222;20;3508724;-57
2023/09/06 01:46:57;;;;;;;;;13.00;13.00;;;;;13.84;87.77;100316.16;6307359;20;3519067;-60
2023/09/06 01:49:28;;;;;;;;;12.00;12.00;;;;;13.49;88.20;100318.44;6303776;20;3516964;-56
2023/09/06 01:51:57;;;;;;;;;11.00;10.50;;;;;13.85;88.44;100317.91;6311481;20;2792137;-57
2023/09/06 01:54:26;;;;;;;;;14.00;14.00;;;;;13.95;87.60;100321.72;6277836;20;3533653;-59
2023/09/06 01:56:54;;;;;;;;;13.50;13.50;;;;;13.72;88.30;100327.78;6308313;20;2491969;-60
2023/09/06 01:59:23;;;;;;;;;14.00;14.00;;;;;13.71;88.38;100320.63;6274831;20;3529568;-55
2023/09/06 02:01:54;;;;;;;;;15.67;15.67;;;;;13.80;88.39;100320.03;6289988;20;3552348;-58
2023/09/06 02:04:23;;;;;;;;;15.67;14.33;;;;;13.78;88.28;100320.13;6311638;20;3537891;-60
2023/09/06 02:06:51;;;;;;;;;12.00;12.00;;;;;13.72;88.08;100325.06;6310591;20;2491956;-59
2023/09/06 02:09:20;;;;;;;;;12.67;12.67;;;;;13.92;87.84;100318.34;6279934;20;3529508;-57
2023/09/06 02:11:48;;;;;;;;;14.00;14.00;;;;;13.79;87.86;100321.84;6281248;20;2794108;-58
2023/09/06 02:14:16;;;;;;;;;12.67;12.67;;;;;13.75;88.16;100320.34;6275066;20;3530517;-57
2023/09/06 02:16:45;;;;;;;;;12.00;12.00;;;;;13.79;87.78;100321.84;6278851;20;3519126;-59
2023/09/06 02:19:13;;;;;;;;;14.00;13.00;;;;;13.51;88.08;100317.38;6311641;20;2798326;-60
2023/09/06 02:21:42;;;;;;;;;16.00;16.00;;;;;13.37;89.13;100311.97;6277519;20;3558656;-59
2023/09/06 02:24:10;;;;;;;;;16.00;14.50;;;;;13.39;89.02;100321.69;6281638;20;2812814;-57
2023/09/06 02:26:39;;;;;;;;;13.67;13.00;;;;;13.83;87.85;100311.75;6279416;20;3524254;-56
2023/09/06 02:29:07;;;;;;;;;13.00;12.00;;;;;13.79;87.45;100313.75;6309014;20;3527360;-56
2023/09/06 02:31:37;;;;;;;;;16.00;14.00;;;;;13.23;88.87;100315.50;6310681;20;3538017;-57
2023/09/06 02:34:06;;;;;;;;;14.00;13.00;;;;;13.38;88.21;100314.59;6311377;20;3524242;-59
2023/09/06 02:36:35;;;;;;;;;15.00;15.00;;;;;13.40;88.26;100314.47;6311022;20;3537745;-60
2023/09/06 02:39:04;;;;;;;;;16.67;14.33;;;;;13.22;89.69;100313.78;6304947;20;3530466;-56
2023/09/06 02:41:32;;;;;;;;;12.00;12.00;;;;;13.39;88.92;100313.59;6311210;20;3526314;-61
2023/09/06 02:44:00;;;;;;;;;11.50;11.50;;;;;12.86;89.70;100315.09;6313838;20;2797145;-59
2023/09/06 02:46:33;;;;;;;;;12.71;12.71;;;;;13.30;88.68;100313.34;6309762;20;3525308;-58
2023/09/06 02:49:11;;;;;;;;;14.00;14.00;;;;;13.30;87.69;100308.81;6305686;20;2796181;-56
2023/09/06 02:51:43;;;;;;;;;13.67;13.67;;;;;13.11;87.61;100318.97;6277257;20;3534020;-59
2023/09/06 02:54:12;;;;;;;;;13.50;13.50;;;;;12.96;87.38;100310.88;6311123;20;2802366;-59
2023/09/06 02:56:40;;;;;;;;;15.67;15.00;;;;;12.72;88.57;100317.75;6279958;20;2800416;-58
2023/09/06 02:59:12;;;;;;;;;13.67;10.67;;;;;12.91;88.36;100302.19;6305468;20;2792208;-56
2023/09/06 03:01:44;;;;;;;;;10.67;10.33;;;;;12.62;88.80;100311.19;6311018;20;3528405;-58
2023/09/06 03:04:13;;;;;;;;;12.00;12.00;;;;;12.50;88.90;100305.56;6314253;20;2779467;-59
2023/09/06 03:06:43;;;;;;;;;13.50;13.50;;;;;12.55;89.01;100304.44;6280795;20;2796218;-60
2023/09/06 03:09:12;;;;;;;;;13.67;13.67;;;;;13.01;88.43;100301.66;6276007;20;3527393;-58
2023/09/06 03:11:40;;;;;;;;;13.50;13.00;;;;;12.80;88.61;100307.38;6314822;20;2788938;-60
2023/09/06 03:14:08;;;;;;;;;13.00;13.00;;;;;12.90;87.73;100308.56;6277279;20;3538828;-56
2023/09/06 03:16:39;;;;;;;;;14.00;12.00;;;;;12.87;88.10;100303.34;6308484;20;2784777;-57
2023/09/06 03:19:09;;;;;;;;;16.00;14.50;;;;;12.94;88.00;100310.09;6279726;20;2799381;-57
2023/09/06 03:21:38;;;;;;;;;13.00;12.00;;;;;12.89;87.96;100314.03;6280311;20;3531557;-59
2023/09/06 03:24:11;;;;;;;;;12.00;10.50;;;;;12.81;88.17;100306.41;6308365;20;2791947;-59
2023/09/06 03:26:44;;;;;;;;;16.50;13.50;;;;;12.63;88.07;100310.22;6277817;20;2491945;-54
2023/09/06 03:29:15;;;;;;;;;13.67;11.67;;;;;12.54;88.47;100308.09;6275522;20;3524434;-60
2023/09/06 03:31:43;;;;;;;;;15.00;14.00;;;;;12.44;89.87;100308.63;6314417;20;2795095;-57
2023/09/06 03:34:13;;;;;;;;;13.00;11.00;;;;;12.68;88.80;100311.69;6284169;20;2784678;-59
2023/09/06 03:36:46;;;;;;;;;18.00;14.00;;;;;12.26;89.45;100309.72;6281652;20;2817459;-57
2023/09/06 03:39:14;;;;;;;;;14.00;14.00;;;;;12.51;88.74;100315.38;6281424;20;2810697;-60
2023/09/06 03:41:42;;;;;;;;;14.00;14.00;;;;;12.54;88.95;100313.47;6282059;20;2796214;-57
2023/09/06 03:44:12;;;;;;;;;15.00;14.67;;;;;12.56;88.98;100322.31;6275872;20;3531654;-59
2023/09/06 03:46:39;;;;;;;;;15.00;14.00;;;;;12.44;89.54;100316.72;6306776;20;2806839;-58
2023/09/06 03:49:10;;;;;;;;;16.33;12.33;;;;;12.45;89.56;100320.25;6275199;20;3539995;-56
2023/09/06 03:51:38;;;;;;;;;15.00;15.00;;;;;12.45;88.99;100322.94;6310638;20;2810884;-60
2023/09/06 03:54:07;;;;;;;;;17.67;16.67;;;;;12.03;89.95;100319.13;6275027;20;3563874;-56
2023/09/06 03:56:38;;;;;;;;;16.33;15.00;;;;;12.02;89.90;100318.25;6279303;20;3552348;-57
2023/09/06 03:59:08;;;;;;;;;16.67;14.33;;;;;11.84;90.85;100319.28;6274774;20;3550278;-58
2023/09/06 04:01:36;;;;;;;;;17.50;16.00;;;;;12.26;90.42;100323.16;6273192;20;2491951;-57
2023/09/06 04:04:04;;;;;;;;;17.00;12.50;;;;;11.95;90.82;100324.94;6278653;20;2817020;-57
2023/09/06 04:06:34;;;;;;;;;17.50;14.00;;;;;11.73;90.71;100329.78;6280149;20;2811770;-58
2023/09/06 04:09:03;;;;;;;;;15.67;14.67;;;;;11.93;90.26;100334.03;6277766;20;3540895;-59
2023/09/06 04:11:31;;;;;;;;;16.00;13.00;;;;;11.38;91.18;100332.59;6310385;20;2806521;-58
2023/09/06 04:14:01;;;;;;;;;16.33;14.33;;;;;11.47;91.06;100337.47;6277285;20;3544036;-55
2023/09/06 04:16:31;;;;;;;;;11.67;11.67;;;;;11.76;90.68;100335.84;6306942;20;3516463;-57
2023/09/06 04:19:01;;;;;;;;;15.00;13.33;;;;;11.91;90.01;100338.66;6303748;20;3537823;-59
2023/09/06 04:21:29;;;;;;;;;13.00;13.00;;;;;12.07;89.72;100343.09;6269362;20;2792150;-58
2023/09/06 04:23:58;;;;;;;;;14.33;13.33;;;;;12.29;89.75;100352.59;6306704;20;3519077;-59
2023/09/06 04:26:27;;;;;;;;;17.67;15.00;;;;;12.10;89.27;100357.31;6307888;20;3548241;-59
2023/09/06 04:28:55;;;;;;;;;16.00;14.67;;;;;12.25;89.38;100353.75;6274233;20;3546109;-56
2023/09/06 04:31:24;;;;;;;;;15.00;13.33;;;;;12.22;90.01;100356.63;6304311;20;2797340;-58
2023/09/06 04:33:53;;;;;;;;;13.33;13.33;;;;;12.27;90.18;100359.94;6308250;20;3510784;-57
2023/09/06 04:36:22;;;;;;;;;16.00;15.00;;;;;12.63;89.69;100356.03;6310383;20;3544149;-57
2023/09/06 04:38:50;;;;;;;;;12.50;12.00;;;;;12.81;89.28;100363.00;6277331;20;2795173;-59
2023/09/06 04:41:18;;;;;;;;;19.00;17.00;;;;;12.95;88.71;100362.16;6273942;20;2491977;-59
2023/09/06 04:43:46;;;;;;;;;13.50;13.50;;;;;13.14;88.33;100364.63;6277090;20;2809760;-60
2023/09/06 04:46:14;;;;;;;;;13.50;13.50;;;;;13.10;88.52;100363.06;6280299;20;2800399;-57
2023/09/06 04:48:44;;;;;;;;;13.67;13.67;;;;;13.35;87.72;100368.72;6280339;20;3525459;-59
2023/09/06 04:51:14;;;;;;;;;16.33;14.00;;;;;13.46;87.63;100368.06;6304465;20;3544031;-59
2023/09/06 04:53:42;;;;;;;;;15.00;13.50;;;;;13.23;87.99;100369.44;6282220;20;2804555;-55
2023/09/06 04:56:10;;;;;;;;;12.50;12.50;;;;;13.49;88.02;100372.41;6287141;20;2800415;-59
2023/09/06 04:58:38;;;;;;;;;12.00;11.50;;;;;13.63;87.08;100375.06;6285705;20;2799319;-59
2023/09/06 05:01:07;;;;;;;;;14.67;13.67;;;;;13.85;87.11;100380.00;6279712;20;3528406;-57
2023/09/06 05:03:35;;;;;;;;;15.50;15.50;;;;;13.76;86.24;100380.56;6307774;20;2483615;-57
2023/09/06 05:06:05;;;;;;;;;17.00;16.00;;;;;13.47;87.62;100379.72;6280651;20;3538919;-57
2023/09/06 05:08:33;;;;;;;;;15.00;14.00;;;;;13.75;87.46;100384.25;6278997;20;2500300;-58
2023/09/06 05:11:00;;;;;;;;;15.00;13.50;;;;;14.03;86.06;100383.31;6278465;20;2494250;-57
2023/09/06 05:13:29;;;;;;;;;15.00;14.00;;;;;13.97;87.05;100383.72;6282733;20;3530624;-58
2023/09/06 05:16:02;;;;;;;;;16.50;14.50;;;;;14.28;86.54;100377.19;6278115;20;2500293;-58
2023/09/06 05:18:31;;;;;;;;;14.00;12.00;;;;;14.45;86.08;100378.75;6277977;20;3527359;-57
2023/09/06 05:21:03;;;;;;;;;11.33;11.33;;;;;14.48;85.26;100382.16;6276816;20;3514864;-56
2023/09/06 05:23:32;;;;;;;;;13.33;13.33;;;;;15.02;84.58;100383.94;6299965;20;3518006;-58
2023/09/06 05:26:01;;;;;;;;;13.00;12.00;;;;;15.13;82.76;100386.75;6270903;20;3521225;-58
2023/09/06 05:28:29;;;;;;;;;15.50;13.50;;;;;15.32;82.00;100388.19;6300080;20;2483670;-56
2023/09/06 05:31:01;;;;;;;;;13.33;13.33;;;;;15.30;82.00;100387.44;6270374;20;3517999;-56
2023/09/06 05:33:29;;;;;;;;;13.00;13.00;;;;;15.17;81.95;100389.28;6305695;20;2810730;-60
2023/09/06 05:35:57;;;;;;;;;14.50;13.00;;;;;15.12;82.38;100385.03;6275580;20;2806326;-59
2023/09/06 05:38:25;;;;;;;;;15.00;13.00;;;;;14.97;82.79;100391.50;6267447;20;3515894;-58
2023/09/06 05:40:55;;;;;;;;;11.67;11.67;;;;;15.40;82.32;100393.91;6303823;20;3513875;-59
2023/09/06 05:43:22;;;;;;;;;10.50;9.50;;;;;15.73;81.03;100396.09;6308557;20;2781527;-58
2023/09/06 05:45:51;;;;;;;;;12.50;12.00;;;;;15.91;79.63;100399.34;6274456;20;2802425;-56
2023/09/06 05:48:19;;;;;;;;;11.00;11.00;;;;;15.84;79.84;100402.59;6273664;20;2789910;-58
2023/09/06 05:50:47;;;;;;;;;13.00;13.00;;;;;16.12;79.43;100404.19;6278288;20;2806556;-57
2023/09/06 05:53:15;;;;;;;;;11.00;11.00;;;;;16.54;78.22;100407.41;6271126;20;2789985;-57
2023/09/06 05:55:44;;;;;;;;;12.67;12.00;;;;;16.66;78.04;100395.59;6301083;20;3515067;-56
2023/09/06 05:58:13;;;;;;;;;10.00;10.00;;;;;18.99;71.61;100408.72;6298630;20;2779579;-57
2023/09/06 06:00:42;;;;;;;;;11.00;11.00;;;;;20.75;63.80;100414.88;6300315;20;3520743;-59
2023/09/06 06:03:10;;;;;;;;;11.33;9.67;;;;;21.33;60.30;100415.84;6307943;20;2781685;-59
2023/09/06 06:05:39;;;;;;;;;12.33;9.67;;;;;22.00;58.02;100414.84;6306553;20;2784769;-58
2023/09/06 06:08:10;;;;;;;;;10.00;10.00;;;;;22.17;56.43;100418.66;6301821;20;3519048;-64
2023/09/06 06:10:40;;;;;;;;;10.33;10.33;;;;;21.72;58.91;100421.28;6299097;20;2796211;-59
2023/09/06 06:13:11;;;;;;;;;10.00;10.00;;;;;23.13;54.45;100429.16;6301480;20;2786853;-60
2023/09/06 06:15:40;;;;;;;;;8.67;8.67;;;;;22.28;56.23;100431.31;6302352;20;2746229;-65
2023/09/06 06:18:08;;;;;;;;;10.00;10.00;;;;;23.17;55.44;100430.56;6298074;20;2794140;-66
2023/09/06 06:20:37;;;;;;;;;14.00;10.00;;;;;22.44;57.30;100423.31;6303759;20;2788926;-66
2023/09/06 06:23:13;;;;;;;;;8.60;8.60;;;;;22.08;57.66;100425.88;6324725;20;2749391;-65
2023/09/06 06:25:41;;;;;;;;;10.00;8.33;;;;;23.18;54.91;100424.94;6263803;20;2775321;-65
2023/09/06 06:28:10;;;;;;;;;7.33;7.33;;;;;27.60;46.38;100434.25;6311071;20;2750295;-65
2023/09/06 06:30:39;;;;;;;;;9.00;7.00;;;;;27.73;45.17;100440.84;6309550;20;2632622;-66
2023/09/06 06:33:07;;;;;;;;;9.00;8.00;;;;;25.90;48.54;100438.63;6303760;20;2750277;-60
2023/09/06 06:35:36;;;;;;;;;10.00;8.00;;;;;25.98;48.77;100433.09;6304806;20;2765914;-60
2023/09/06 06:38:06;;;;;;;;;7.80;7.80;;;;;26.08;47.75;100443.91;6328137;20;2746276;-59
2023/09/06 06:40:37;;;;;;;;;7.00;7.00;;;;;26.20;47.48;100450.78;6275495;20;2746118;-59
2023/09/06 06:43:06;;;;;;;;;6.33;6.33;;;;;27.72;43.63;100461.19;6307611;20;2748289;-63
2023/09/06 06:45:35;;;;;;;;;9.00;6.00;;;;;26.66;47.65;100450.94;6303019;20;2748209;-64
2023/09/06 06:48:04;;;;;;;;;8.00;8.00;;;;;28.23;41.55;100461.38;6302114;20;2752390;-65
2023/09/06 06:50:33;;;;;;;;;7.00;7.00;;;;;29.86;38.02;100465.56;6310090;20;2754484;-65
2023/09/06 06:53:02;;;;;;;;;5.67;5.67;;;;;29.28;39.41;100459.25;6302156;20;2743230;-66
2023/09/06 06:55:31;;;;;;;;;6.67;6.67;;;;;29.65;38.93;100476.66;6304220;20;2734776;-65
2023/09/06 06:58:00;;;;;;;;;7.00;7.00;;;;;28.79;39.85;100471.06;6310031;20;2754574;-64
2023/09/06 07:00:31;;;;;;;;;7.00;5.33;;;;;29.17;39.50;100470.88;6295787;20;2738943;-63
2023/09/06 07:03:09;;;;;;;;;5.80;5.20;;;;;29.53;38.38;100477.19;6330402;20;2736774;-63
2023/09/06 07:05:38;;;;;;;;;6.67;6.67;;;;;30.68;36.71;100485.28;6300742;20;2735736;-63
2023/09/06 07:08:06;;;;;;;;;7.33;6.00;;;;;32.39;34.93;100485.72;6304256;20;2731541;-64
2023/09/06 07:10:35;;;;;;;;;6.00;6.00;;;;;29.61;37.71;100469.81;6298301;20;2741104;-64
2023/09/06 07:13:05;;;;;;;;;6.00;6.00;;;;;30.95;36.22;100480.72;6315549;20;2735758;-63
2023/09/06 07:15:33;;;;;;;;;5.67;5.00;;;;;30.96;36.09;100479.63;6306126;20;2740954;-62
2023/09/06 07:18:06;;;;;;;;;5.67;5.67;;;;;30.20;36.60;100469.41;6306158;20;2744103;-60
2023/09/06 07:20:36;;;;;;;;;0.40;0.40;;;;;30.34;36.35;100474.00;6330595;20;2739999;-59
2023/09/06 07:23:05;;;;;;;;;7.00;7.00;;;;;30.01;36.71;100470.13;6274547;20;2747176;-60
2023/09/06 07:25:34;;;;;;;;;7.00;7.00;;;;;26.91;43.13;100460.78;6304372;20;2751106;-60
2023/09/06 07:28:03;;;;;;;;;9.00;7.00;;;;;25.66;46.78;100456.84;6305895;20;2756605;-63
2023/09/06 07:30:32;;;;;;;;;7.00;6.00;;;;;24.88;47.89;100446.31;6303049;20;2735893;-61
2023/09/06 07:33:00;;;;;;;;;6.67;6.67;;;;;24.52;48.03;100446.56;6306822;20;2739888;-58
2023/09/06 07:35:29;;;;;;;;;8.00;8.00;;;;;24.72;48.05;100449.88;6307189;20;2750324;-58
2023/09/06 07:38:01;;;;;;;;;7.33;6.67;;;;;24.88;48.82;100449.06;6301729;20;2741029;-57
2023/09/06 07:40:30;;;;;;;;;7.33;7.00;;;;;24.77;48.29;100457.63;6302592;20;2750416;-57
2023/09/06 07:42:59;;;;;;;;;8.00;8.00;;;;;24.17;49.47;100451.19;6328913;20;2748298;-56
2023/09/06 07:45:28;;;;;;;;;6.00;6.00;;;;;24.82;48.11;100455.22;6269294;20;2734809;-54
2023/09/06 07:47:56;;;;;;;;;8.33;6.67;;;;;25.42;46.79;100457.75;6309400;20;2742999;-56
2023/09/06 07:50:25;;;;;;;;;6.67;6.67;;;;;25.16;47.40;100447.75;6301294;20;2743751;-59
2023/09/06 07:52:53;;;;;;;;;7.67;7.67;;;;;25.14;47.80;100454.41;6305239;20;2740965;-56
2023/09/06 07:55:22;;;;;;;;;5.67;4.33;;;;;25.51;46.73;100459.44;6304510;20;2752428;-57
2023/09/06 07:57:50;;;;;;;;;8.00;8.00;;;;;25.61;46.20;100457.38;6299718;20;2735720;-56
2023/09/06 08:00:19;;;;;;;;;9.00;9.00;;;;;25.58;47.38;100457.72;6312940;20;2629603;-57
2023/09/06 08:02:48;;;;;;;;;7.00;7.00;;;;;25.04;47.55;100457.34;6303438;20;2746246;-53
2023/09/06 08:05:17;;;;;;;;;18.00;16.33;;;;;25.68;47.14;100462.19;6301886;20;3566935;-55
2023/09/06 08:07:46;;;;;;;;;8.00;8.00;;;;;25.55;47.36;100459.97;6294613;20;2751973;-53
2023/09/06 08:10:15;;;;;;;;;8.67;8.67;;;;;25.23;47.87;100463.59;6270577;20;2747199;-55
2023/09/06 08:12:44;;;;;;;;;7.40;7.40;;;;;24.90;47.92;100461.59;6329576;20;2756635;-55
2023/09/06 08:15:13;;;;;;;;;8.33;8.33;;;;;25.93;47.58;100461.13;6270361;20;3465912;-56
2023/09/06 08:17:42;;;;;;;;;9.00;8.33;;;;;26.21;46.28;100472.59;6306445;20;2740933;-53
2023/09/06 08:20:14;;;;;;;;;11.00;8.33;;;;;25.39;47.18;100474.59;6301757;20;2768111;-57
2023/09/06 08:22:47;;;;;;;;;8.60;7.60;;;;;26.15;47.08;100475.22;6350878;20;1928466;-54
2023/09/06 08:25:17;;;;;;;;;10.67;9.00;;;;;26.61;46.16;100470.75;6303858;20;2771112;-57
2023/09/06 08:27:46;;;;;;;;;7.00;7.00;;;;;25.97;46.31;100468.03;6301906;20;3463801;-57
2023/09/06 08:30:17;;;;;;;;;9.67;8.00;;;;;26.12;46.38;100470.91;6303114;20;2764959;-51
2023/09/06 08:32:49;;;;;;;;;7.33;7.33;;;;;26.32;46.56;100465.00;6304032;20;2740931;-54
2023/09/06 08:35:18;;;;;;;;;11.67;8.00;;;;;25.55;48.14;100459.97;6300676;20;3485755;-55
2023/09/06 08:37:47;;;;;;;;;8.00;8.00;;;;;26.83;44.86;100465.47;6301111;20;2739896;-57
2023/09/06 08:40:16;;;;;;;;;8.67;7.33;;;;;26.35;45.71;100464.63;6298698;20;2752440;-55
2023/09/06 08:42:45;;;;;;;;;7.00;7.00;;;;;26.56;46.03;100461.31;6304884;20;2756540;-57
2023/09/06 08:45:24;;;;;;;;;6.00;6.00;;;;;26.38;45.73;100459.63;6302573;20;2748345;-56
2023/09/06 08:47:53;;;;;;;;;7.67;6.33;;;;;27.00;43.82;100461.56;6300164;20;2745122;-53
2023/09/06 08:50:23;;;;;;;;;7.00;7.00;;;;;26.81;44.25;100468.41;6301002;20;2747274;-56
2023/09/06 08:52:54;;;;;;;;;7.00;6.00;;;;;26.54;45.00;100460.63;6301122;20;2729597;-56
2023/09/06 08:55:23;;;;;;;;;5.33;5.33;;;;;26.88;44.07;100463.03;6300033;20;2739902;-57
2023/09/06 08:57:52;;;;;;;;;10.33;9.00;;;;;27.07;44.28;100456.19;6306399;20;2771114;-57
2023/09/06 09:00:23;;;;;;;;;7.00;7.00;;;;;27.10;43.04;100455.84;6300616;20;2748272;-58
2023/09/06 09:02:52;;;;;;;;;7.00;7.00;;;;;26.67;44.43;100458.13;6310954;20;2764017;-60
2023/09/06 09:05:22;;;;;;;;;13.67;9.00;;;;;27.05;45.28;100455.53;6295366;20;3498227;-53
2023/09/06 09:08:00;;;;;;;;;7.33;6.67;;;;;27.54;44.27;100455.13;6305686;20;2740907;-53
2023/09/06 09:10:31;;;;;;;;;6.00;6.00;;;;;27.52;43.35;100458.09;6299819;20;2745238;-58
2023/09/06 09:13:02;;;;;;;;;6.33;5.00;;;;;27.69;42.71;100456.03;6302349;20;2746170;-56
2023/09/06 09:15:33;;;;;;;;;3.67;3.67;;;;;27.31;42.59;100456.03;6309815;20;2744088;-49
2023/09/06 09:18:13;;;;;;;;;7.33;5.00;;;;;27.44;42.76;100457.31;6299443;20;2743094;-59
2023/09/06 09:20:43;;;;;;;;;8.00;5.67;;;;;27.53;42.34;100447.91;6299952;20;2740937;-60
2023/09/06 09:23:16;;;;;;;;;7.67;5.67;;;;;27.38;41.26;100456.13;6304895;20;2740934;-60
2023/09/06 09:25:51;;;;;;;;;5.33;5.33;;;;;27.72;40.66;100446.53;6301526;20;2746567;-61
2023/09/06 09:28:20;;;;;;;;;7.33;6.00;;;;;28.26;40.78;100453.75;6301619;20;2735710;-62
2023/09/06 09:30:50;;;;;;;;;7.00;6.00;;;;;27.48;42.03;100434.69;6299822;20;2736749;-65
2023/09/06 09:33:19;;;;;;;;;6.00;6.00;;;;;26.93;43.24;100442.13;6303884;20;2732578;-62
2023/09/06 09:35:48;;;;;;;;;6.33;6.33;;;;;27.60;42.79;100431.50;6300377;20;2743396;-59
2023/09/06 09:38:17;;;;;;;;;6.33;5.67;;;;;27.95;43.07;100436.31;6308577;20;2746136;-60
2023/09/06 09:40:46;;;;;;;;;5.33;5.33;;;;;28.21;40.40;100441.38;6306962;20;2742102;-59
2023/09/06 09:43:21;;;;;;;;;8.00;6.67;;;;;27.70;41.10;100432.94;6307928;20;2737919;-60
2023/09/06 09:45:49;;;;;;;;;38.50;30.00;;;;;27.56;40.26;100431.00;6307694;20;2852374;-58
2023/09/06 09:48:21;;;;;;;;;26.33;16.33;;;;;28.16;40.05;100431.94;6276703;20;3583593;-58
2023/09/06 09:50:55;;;;;;;;;6.00;6.00;;;;;28.43;39.74;100433.16;6274480;20;2737833;-60
2023/09/06 09:53:25;;;;;;;;;4.40;4.40;;;;;28.16;38.84;100431.94;6333482;20;2736784;-58
2023/09/06 09:55:55;;;;;;;;;3.67;3.67;;;;;27.71;40.35;100434.63;6279739;20;2750339;-58
2023/09/06 09:58:28;;;;;;;;;6.00;5.00;;;;;27.50;40.84;100423.47;6307052;20;2737883;-58
2023/09/06 10:00:57;;;;;;;;;22.00;12.00;;;;;28.16;40.67;100421.75;6302413;20;2492077;-52
2023/09/06 10:03:33;;;;;;;;;4.67;4.67;;;;;28.37;38.82;100428.41;6308810;20;2743034;-50
2023/09/06 10:06:03;;;;;;;;;9.33;8.00;;;;;28.78;38.81;100430.63;6303200;20;3476337;-49
2023/09/06 10:08:35;;;;;;;;;6.33;6.33;;;;;28.36;39.43;100432.22;6304890;20;2746174;-47
2023/09/06 10:11:07;;;;;;;;;5.00;4.25;;;;;28.73;37.91;100427.63;6349175;20;3449366;-46
2023/09/06 10:13:39;;;;;;;;;5.33;5.33;;;;;28.16;39.63;100427.28;6306134;20;2743315;-52
2023/09/06 10:16:07;;;;;;;;;8.00;8.00;;;;;27.46;41.18;100419.34;6304521;20;2756544;-54
2023/09/06 10:18:37;;;;;;;;;4.33;4.33;;;;;28.10;39.85;100422.53;6304814;20;2739928;-50
2023/09/06 10:21:07;;;;;;;;;5.67;5.67;;;;;28.14;40.26;100418.31;6310511;20;2733663;-50
2023/09/06 10:23:54;;;;;;;;;5.33;5.00;;;;;28.42;37.45;100414.88;6308572;20;2741984;-52
2023/09/06 10:26:43;;;;;;;;;6.33;6.33;;;;;28.76;37.59;100416.16;6309211;20;2736041;-52
2023/09/06 10:29:21;;;;;;;;;8.40;5.60;;;;;28.82;37.58;100420.91;6324601;20;2753526;-51
2023/09/06 10:31:52;;;;;;;;;5.33;5.33;;;;;28.39;37.71;100409.75;6285360;20;2746140;-49
2023/09/06 10:34:21;;;;;;;;;6.00;6.00;;;;;28.45;37.86;100398.78;6308585;20;2734663;-50
2023/09/06 10:36:58;;;;;;;;;5.67;5.33;;;;;28.46;37.25;100402.41;6309828;20;2735701;-50
2023/09/06 10:39:29;;;;;;;;;7.33;6.33;;;;;28.16;37.62;100401.56;6304848;20;2731566;-56
2023/09/06 10:42:11;;;;;;;;;5.33;5.33;;;;;28.61;37.50;100406.00;6303492;20;2746376;-55
2023/09/06 10:44:58;;;;;;;;;4.33;4.00;;;;;29.49;36.46;100409.47;6307767;20;2749291;-52
2023/09/06 10:47:35;;;;;;;;;7.67;7.00;;;;;28.45;37.82;100407.06;6305980;20;2750287;-58
2023/09/06 10:50:12;;;;;;;;;6.00;4.67;;;;;29.04;36.33;100408.84;6306125;20;2742114;-51
2023/09/06 10:52:44;;;;;;;;;5.50;5.00;;;;;29.29;37.05;100412.06;6309106;20;2449430;-52
2023/09/06 10:55:26;;;;;;;;;7.33;6.33;;;;;28.66;37.93;100405.41;6307454;20;2733753;-54
2023/09/06 10:58:08;;;;;;;;;4.00;4.00;;;;;28.38;37.46;100402.47;6313293;20;2739978;-53
2023/09/06 11:00:38;;;;;;;;;5.00;5.00;;;;;27.92;37.59;100399.97;6330358;20;2741960;-51
2023/09/06 11:03:07;;;;;;;;;5.33;5.33;;;;;28.03;36.34;100399.47;6306590;20;2741066;-55
2023/09/06 11:05:44;;;;;;;;;8.40;6.60;;;;;28.11;37.01;100391.09;6329076;20;2746182;-55
2023/09/06 11:08:31;;;;;;;;;4.33;4.33;;;;;28.27;35.99;100383.66;6273995;20;2733631;-53
2023/09/06 11:11:05;;;;;;;;;6.00;6.00;;;;;28.89;35.85;100385.91;6305664;20;2737786;-52
2023/09/06 11:13:35;;;;;;;;;37.33;19.00;;;;;28.49;36.36;100391.00;6305397;20;3595107;-51